Weather at Tromsø Airport, Langnes

Public forecast

Using degrees Celsius for public forecast. Weather courtesy of forecast.io.

Current aviation weather report (METAR) for Tromsø Airport, Langnes

Report is more than 6 hours old.

2022/11/14 15:20 (retrieved 2 years ago)

ENTC 141520Z VRB01KT 9999 VCSH SCT010 BKN020 02/01 Q1022 NOSIG RMK WIND 2600FT 34016KT

Aviation forecast (TAF) for Tromsø Airport, Langnes

Forecast is more than 12 hours old.

2023/02/22 18:36 (retrieved 1 year ago)

TAF ENTC 221700Z 2218/2318 22020KT CAVOK PROB30 TEMPO 2220/2223 4000 -SN DRSN VV014 TEMPO 2223/2314 19025G48KT TEMPO 2310/2318 3000 SHSNRA BKN008 SCT015CB